Time;durP1;ratioP1;P1;durP2;ratioP2;P2;SDS_P1;SDS_P2;PMS_P1;PMS_P2;Temp;Humidity;BMP_temperature;BMP_pressure;BME280_temperature;BME280_humidity;BME280_pressure;Samples;Min_cycle;Max_cycle;Signal;HPM_P1;HPM_P2
2022/01/12 00:00:49;;;;;;;22.90;12.80;;;;;;;-2.25;83.02;102494.63;87673;1284;77635;-72
2022/01/12 00:02:58;;;;;;;21.50;12.70;;;;;;;-2.25;82.86;102495.34;87655;1284;82631;-59
2022/01/12 00:05:04;;;;;;;24.80;13.60;;;;;;;-2.26;82.69;102498.70;87598;1284;99716;-60
2022/01/12 00:07:14;;;;;;;23.10;12.70;;;;;;;-2.30;82.69;102498.85;87686;1284;89633;-58
2022/01/12 00:09:20;;;;;;;22.00;12.10;;;;;;;-2.31;82.57;102497.48;87684;1284;95743;-59
2022/01/12 00:11:29;;;;;;;20.90;12.60;;;;;;;-2.34;82.63;102498.82;87580;1283;78919;-59
2022/01/12 00:13:35;;;;;;;24.30;12.90;;;;;;;-2.40;82.64;102501.86;87582;1284;81662;-59
2022/01/12 00:15:44;;;;;;;24.20;13.60;;;;;;;-2.38;82.72;102498.46;87659;1284;97833;-58
2022/01/12 00:17:53;;;;;;;25.80;13.70;;;;;;;-2.36;82.84;102498.20;87599;1284;89292;-58
2022/01/12 00:20:02;;;;;;;25.60;14.00;;;;;;;-2.35;82.63;102493.90;87668;1284;95936;-76
2022/01/12 00:22:08;;;;;;;26.20;14.70;;;;;;;-2.33;82.97;102495.27;87598;1284;81699;-76
2022/01/12 00:24:16;;;;;;;32.80;17.20;;;;;;;-2.30;82.79;102496.38;87720;1284;81796;-76
2022/01/12 00:26:40;;;;;;;33.50;17.40;;;;;;;-2.29;82.85;102497.23;87577;1284;99096;-76
2022/01/12 00:33:36;;;;;;;27.10;14.90;;;;;;;-2.19;82.88;102500.55;87656;1283;78897;-61
2022/01/12 00:35:48;;;;;;;27.30;16.40;;;;;;;-2.21;82.73;102500.80;87677;1283;80759;-61
2022/01/12 00:37:57;;;;;;;30.00;17.80;;;;;;;-2.26;82.81;102500.31;87674;1283;99934;-60
2022/01/12 00:40:08;;;;;;;39.10;21.70;;;;;;;-2.26;82.92;102501.34;87590;1284;87405;-59
2022/01/12 00:42:15;;;;;;;36.10;20.70;;;;;;;-2.31;82.84;102501.36;87584;1284;94741;-75
2022/01/12 00:44:24;;;;;;;38.50;21.00;;;;;;;-2.34;82.64;102501.48;87608;1284;79373;-75
2022/01/12 00:46:31;;;;;;;34.40;20.00;;;;;;;-2.36;82.74;102499.08;87659;1283;82651;-74
2022/01/12 00:48:37;;;;;;;41.70;22.20;;;;;;;-2.40;82.86;102500.30;87617;1284;97816;-75
2022/01/12 00:50:44;;;;;;;41.70;22.50;;;;;;;-2.42;82.69;102496.64;87591;1284;89312;-73
2022/01/12 00:52:53;;;;;;;43.00;22.30;;;;;;;-2.42;82.85;102496.48;87638;1283;95628;-74
2022/01/12 00:54:59;;;;;;;45.00;24.80;;;;;;;-2.42;82.85;102499.64;87603;1284;80901;-75
2022/01/12 00:57:09;;;;;;;43.60;23.40;;;;;;;-2.33;83.11;102498.79;87691;1284;83228;-59
2022/01/12 00:59:15;;;;;;;40.60;22.50;;;;;;;-2.29;83.11;102494.41;87686;1283;98943;-61
2022/01/12 01:01:24;;;;;;;43.00;23.20;;;;;;;-2.31;83.09;102493.08;87599;1284;89913;-59
2022/01/12 01:03:34;;;;;;;46.00;24.50;;;;;;;-2.28;83.28;102494.19;87675;1283;93651;-60
2022/01/12 01:05:43;;;;;;;52.70;27.20;;;;;;;-2.24;83.10;102494.23;87641;1283;77531;-60
2022/01/12 01:07:50;;;;;;;55.10;27.20;;;;;;;-2.18;83.15;102497.36;87608;1284;82166;-76
2022/01/12 01:10:03;;;;;;;48.90;26.00;;;;;;;-2.21;83.19;102499.23;87645;1283;100157;-75
2022/01/12 01:12:11;;;;;;;49.20;26.90;;;;;;;-2.24;83.08;102500.56;87662;1283;88559;-60
2022/01/12 01:14:23;;;;;;;59.40;29.40;;;;;;;-2.28;83.24;102498.25;87579;1284;95493;-61
2022/01/12 01:16:47;;;;;;;55.30;27.00;;;;;;;-2.28;83.11;102494.36;87626;1284;78799;-60
2022/01/12 01:26:12;;;;;;;48.60;24.40;;;;;;;-2.28;83.04;102492.25;87647;1284;95874;-61
2022/01/12 01:28:21;;;;;;;52.80;26.40;;;;;;;-2.25;83.03;102490.73;87595;1284;80587;-60
2022/01/12 01:30:31;;;;;;;47.50;26.20;;;;;;;-2.21;83.15;102493.25;87667;1283;84905;-60
2022/01/12 01:32:41;;;;;;;51.50;26.90;;;;;;;-2.19;83.02;102494.02;87487;1285;99847;-60
2022/01/12 01:34:49;;;;;;;50.70;26.40;;;;;;;-2.19;83.29;102494.23;87684;1283;87496;-60
2022/01/12 01:36:56;;;;;;;51.50;26.50;;;;;;;-2.17;83.22;102489.55;87613;1284;93213;-62
2022/01/12 01:39:07;;;;;;;51.20;26.00;;;;;;;-2.20;83.07;102492.31;87641;1284;79393;-60
2022/01/12 01:41:16;;;;;;;52.90;25.30;;;;;;;-2.21;83.07;102490.43;87616;1284;79866;-60
2022/01/12 01:43:37;;;;;;;51.90;26.20;;;;;;;-2.25;83.02;102491.61;87652;1283;99959;-60
2022/01/12 01:53:22;;;;;;;54.40;26.80;;;;;;;-2.49;82.75;102498.67;87461;1283;82359;-60
2022/01/12 01:55:28;;;;;;;54.40;28.20;;;;;;;-2.50;82.94;102498.00;87558;1284;98950;-59
2022/01/12 01:57:34;;;;;;;58.00;27.70;;;;;;;-2.49;82.81;102493.02;87694;1283;88727;-74
2022/01/12 01:59:45;;;;;;;54.50;26.90;;;;;;;-2.52;82.97;102492.10;87579;1284;95902;-74
2022/01/12 02:01:52;;;;;;;55.30;27.50;;;;;;;-2.49;83.07;102493.56;87599;1284;80814;-74
2022/01/12 02:04:02;;;;;;;55.70;28.50;;;;;;;-2.44;83.33;102488.95;87662;1283;83343;-74
2022/01/12 02:06:09;;;;;;;55.30;27.50;;;;;;;-2.41;83.02;102489.37;87601;1284;99635;-60
2022/01/12 02:08:22;;;;;;;47.20;25.90;;;;;;;-2.43;83.03;102492.63;87656;1284;89507;-60
2022/01/12 02:10:28;;;;;;;52.60;28.10;;;;;;;-2.41;82.93;102489.21;87587;1284;95318;-59
2022/01/12 02:12:39;;;;;;;52.90;25.80;;;;;;;-2.39;82.94;102494.95;87596;1284;77808;-59
2022/01/12 02:14:50;;;;;;;49.70;26.00;;;;;;;-2.40;82.91;102495.33;87618;1284;82558;-59
2022/01/12 02:17:01;;;;;;;54.50;26.10;;;;;;;-2.41;82.91;102486.02;87590;1284;99764;-75
2022/01/12 02:19:17;;;;;;;50.50;25.40;;;;;;;-2.45;82.87;102490.75;87494;1285;88326;-75
2022/01/12 02:36:10;;;;;;;47.80;23.00;;;;;;;-2.57;83.32;102486.41;87582;1284;80392;-74
2022/01/12 02:40:49;;;;;;;63.00;27.80;;;;;;;-2.54;83.30;102483.84;87653;1283;98867;-59
2022/01/12 02:43:06;;;;;;;63.50;29.50;;;;;;;-2.53;83.11;102486.11;87576;1284;89111;-74
2022/01/12 02:54:53;;;;;;;47.40;26.00;;;;;;;-2.60;83.30;102479.67;87593;1284;89195;-77
2022/01/12 02:56:59;;;;;;;44.20;25.40;;;;;;;-2.64;83.30;102479.10;87650;1283;94316;-73
2022/01/12 02:59:09;;;;;;;42.70;23.00;;;;;;;-2.67;83.30;102473.05;87457;1285;79646;-72
2022/01/12 03:01:54;;;;;;;47.00;24.40;;;;;;;-2.70;83.20;102477.93;87662;1283;82157;-74
2022/01/12 03:04:02;;;;;;;43.70;22.90;;;;;;;-2.77;83.29;102476.41;87645;1283;98955;-74
2022/01/12 03:06:09;;;;;;;48.10;25.70;;;;;;;-2.81;83.41;102474.79;87622;1284;86718;-75
2022/01/12 03:08:19;;;;;;;42.30;23.10;;;;;;;-2.79;83.29;102476.45;87654;1283;95022;-75
2022/01/12 03:10:25;;;;;;;42.80;23.60;;;;;;;-2.75;83.54;102481.97;87576;1284;79615;-76
2022/01/12 03:12:31;;;;;;;45.70;24.70;;;;;;;-2.74;83.38;102481.21;87687;1283;80732;-61
2022/01/12 03:14:37;;;;;;;43.70;23.40;;;;;;;-2.74;83.44;102484.75;87473;1285;99186;-60
2022/01/12 03:16:43;;;;;;;40.70;23.60;;;;;;;-2.70;83.54;102486.55;87670;1283;88828;-61
2022/01/12 03:18:54;;;;;;;46.80;24.80;;;;;;;-2.70;83.53;102487.62;87576;1284;96048;-59
2022/01/12 03:21:01;;;;;;;48.70;25.40;;;;;;;-2.69;83.39;102490.76;87643;1283;77786;-70
2022/01/12 03:23:07;;;;;;;47.30;26.60;;;;;;;-2.72;83.32;102494.04;87620;1284;80523;-59
2022/01/12 03:25:13;;;;;;;48.40;27.10;;;;;;;-2.73;83.46;102491.24;87625;1284;100485;-59
2022/01/12 03:27:21;;;;;;;49.00;27.20;;;;;;;-2.74;83.53;102490.40;87656;1283;87788;-60
2022/01/12 03:29:27;;;;;;;48.00;25.30;;;;;;;-2.77;83.41;102487.66;87581;1284;96185;-60
2022/01/12 03:31:35;;;;;;;45.80;23.90;;;;;;;-2.78;83.50;102486.84;87651;1283;79033;-60
2022/01/12 03:33:55;;;;;;;46.30;24.80;;;;;;;-2.79;83.54;102491.66;87586;1284;83481;-60
2022/01/12 04:08:18;;;;;;;41.80;21.10;;;;;;;-3.06;83.90;102480.55;87595;1284;82361;-74
2022/01/12 04:08:23;;;;;;;43.20;23.00;;;;;;;-3.11;83.89;102475.12;87616;1284;98304;-60
2022/01/12 04:10:29;;;;;;;44.10;21.50;;;;;;;-3.16;84.15;102474.38;87648;1283;86545;-60
2022/01/12 04:12:38;;;;;;;41.60;21.30;;;;;;;-3.15;84.08;102476.30;87579;1284;95274;-75
2022/01/12 04:14:44;;;;;;;44.00;23.70;;;;;;;-3.15;84.19;102480.89;87592;1284;80118;-74
2022/01/12 04:16:50;;;;;;;43.50;23.20;;;;;;;-3.17;84.36;102480.59;87659;1283;81118;-71
2022/01/12 04:18:55;;;;;;;42.80;21.70;;;;;;;-3.21;84.17;102476.86;87669;1283;100240;-74
2022/01/12 04:21:07;;;;;;;43.80;22.50;;;;;;;-3.26;84.08;102480.73;87605;1284;87688;-75
2022/01/12 04:23:17;;;;;;;46.30;22.60;;;;;;;-3.32;84.08;102486.73;87465;1284;95648;-60
2022/01/12 04:25:26;;;;;;;42.20;23.40;;;;;;;-3.33;84.09;102487.49;87670;1282;79270;-60
2022/01/12 04:27:32;;;;;;;46.20;24.00;;;;;;;-3.37;84.23;102485.86;87616;1284;82802;-60
2022/01/12 04:29:40;;;;;;;48.80;25.00;;;;;;;-3.37;84.31;102486.73;87582;1284;99855;-59
2022/01/12 04:31:49;;;;;;;52.40;25.60;;;;;;;-3.38;84.34;102484.29;87585;1284;88179;-73
2022/01/12 04:33:55;;;;;;;45.70;24.60;;;;;;;-3.39;84.54;102481.17;87644;1283;94722;-75
2022/01/12 04:36:11;;;;;;;50.70;24.50;;;;;;;-3.39;84.32;102479.77;87573;1284;78326;-74
2022/01/12 04:38:23;;;;;;;53.90;26.80;;;;;;;-3.39;84.52;102475.89;87667;1283;82599;-74
2022/01/12 04:40:29;;;;;;;49.10;26.30;;;;;;;-3.42;84.34;102476.32;87665;1283;98706;-76
2022/01/12 04:42:36;;;;;;;52.20;26.00;;;;;;;-3.43;84.25;102474.23;87615;1283;87046;-76
2022/01/12 04:44:47;;;;;;;53.90;26.80;;;;;;;-3.40;84.47;102482.08;87661;1283;96211;-75
2022/01/12 04:47:05;;;;;;;54.50;26.90;;;;;;;-3.36;84.47;102480.52;87574;1284;79350;-75
2022/01/12 04:49:36;;;;;;;53.60;26.80;;;;;;;-3.31;84.57;102478.61;87659;1283;82976;-75
2022/01/12 04:51:44;;;;;;;54.30;26.80;;;;;;;-3.27;84.62;102475.66;87556;1284;100370;-73
2022/01/12 04:53:53;;;;;;;57.50;28.10;;;;;;;-3.25;84.62;102473.63;87671;1283;88904;-74
2022/01/12 04:56:00;;;;;;;54.70;28.30;;;;;;;-3.22;84.72;102473.91;87660;1283;95614;-77
2022/01/12 04:58:10;;;;;;;56.90;27.30;;;;;;;-3.21;84.55;102469.48;87572;1284;77828;-75
2022/01/12 05:00:21;;;;;;;51.90;26.80;;;;;;;-3.19;84.57;102466.94;87654;1283;80428;-75
2022/01/12 05:07:29;;;;;;;53.40;27.90;;;;;;;-3.25;84.62;102465.52;87616;1283;94322;-59
2022/01/12 05:10:01;;;;;;;53.70;26.70;;;;;;;-3.30;84.72;102471.35;87616;1283;80310;-58
2022/01/12 05:14:40;;;;;;;57.60;30.40;;;;;;;-3.27;85.08;102476.20;87639;1283;99597;-59
2022/01/12 05:16:46;;;;;;;54.30;28.60;;;;;;;-3.27;85.03;102473.88;87605;1284;87458;-62
2022/01/12 05:18:54;;;;;;;58.10;29.30;;;;;;;-3.26;84.86;102473.67;87606;1283;95623;-59
2022/01/12 05:21:02;;;;;;;54.30;28.00;;;;;;;-3.21;85.12;102472.44;87552;1284;82110;-60
2022/01/12 05:23:07;;;;;;;57.20;29.60;;;;;;;-3.18;85.15;102469.17;87637;1283;83201;-60
2022/01/12 05:25:17;;;;;;;62.70;32.80;;;;;;;-3.14;84.88;102472.21;87583;1284;97445;-61
2022/01/12 05:27:23;;;;;;;62.80;31.00;;;;;;;-3.07;84.78;102475.48;87629;1283;88776;-61
2022/01/12 05:29:29;;;;;;;63.30;32.50;;;;;;;-3.03;84.78;102475.02;87566;1284;95326;-60
2022/01/12 05:31:37;;;;;;;61.90;32.10;;;;;;;-3.08;84.90;102470.80;87613;1283;76794;-72
2022/01/12 05:33:48;;;;;;;65.30;31.30;;;;;;;-3.13;84.67;102469.02;87565;1284;82584;-73
2022/01/12 05:36:01;;;;;;;59.30;30.00;;;;;;;-3.15;84.84;102469.61;87604;1284;99917;-73
2022/01/12 05:38:12;;;;;;;67.70;33.60;;;;;;;-3.16;85.22;102468.20;87623;1283;90016;-59
2022/01/12 05:40:20;;;;;;;66.50;31.20;;;;;;;-3.18;84.90;102462.12;87570;1284;93485;-59
2022/01/12 05:42:26;;;;;;;63.80;31.90;;;;;;;-3.21;84.93;102461.52;87635;1283;79243;-76
2022/01/12 05:44:36;;;;;;;67.40;32.40;;;;;;;-3.19;85.05;102461.64;87597;1284;80239;-76
2022/01/12 05:46:43;;;;;;;62.90;30.30;;;;;;;-3.17;85.06;102460.70;87643;1283;98812;-59
2022/01/12 05:51:12;;;;;;;;;;;;;;;-3.14;85.21;102453.86;87677;1283;94026;-59
2022/01/12 05:53:18;;;;;;;66.80;32.90;;;;;;;-3.13;85.06;102455.09;87594;1284;79722;-58
2022/01/12 05:55:25;;;;;;;67.20;33.30;;;;;;;-3.10;85.01;102459.57;87604;1284;82534;-59
2022/01/12 05:57:31;;;;;;;66.00;34.20;;;;;;;-3.04;85.15;102463.06;87638;1283;97060;-59
2022/01/12 05:59:39;;;;;;;67.50;33.30;;;;;;;-2.98;85.19;102461.81;87579;1284;89128;-58
2022/01/12 06:01:45;;;;;;;67.30;33.70;;;;;;;-3.01;84.87;102463.31;87568;1284;95503;-58
2022/01/12 06:03:51;;;;;;;68.70;33.40;;;;;;;-3.00;85.02;102468.20;87627;1283;79385;-58
2022/01/12 06:05:57;;;;;;;68.10;34.70;;;;;;;-2.99;85.02;102466.58;87583;1284;80838;-59
2022/01/12 06:08:02;;;;;;;68.80;33.70;;;;;;;-3.01;85.01;102464.02;87651;1284;99212;-76
2022/01/12 06:10:09;;;;;;;68.60;34.50;;;;;;;-3.04;85.04;102464.83;87632;1283;89418;-76
2022/01/12 06:12:17;;;;;;;66.60;32.30;;;;;;;-3.04;84.92;102469.77;87587;1284;94801;-57
2022/01/12 06:14:26;;;;;;;64.10;31.60;;;;;;;-3.06;85.19;102472.27;87590;1283;79594;-59
2022/01/12 06:16:35;;;;;;;69.20;33.50;;;;;;;-3.06;85.08;102477.76;87612;1284;81249;-78
2022/01/12 06:18:40;;;;;;;68.30;33.20;;;;;;;-3.03;85.25;102478.71;87641;1284;99116;-77
2022/01/12 06:20:46;;;;;;;65.80;32.90;;;;;;;-3.00;85.19;102473.50;87663;1283;89716;-76
2022/01/12 06:22:55;;;;;;;68.90;33.50;;;;;;;-3.00;85.17;102468.39;87577;1284;94919;-76
2022/01/12 06:25:02;;;;;;;61.00;30.80;;;;;;;-2.99;85.19;102471.88;87641;1284;81272;-77
2022/01/12 06:27:10;;;;;;;63.50;30.60;;;;;;;-2.94;85.10;102478.23;87558;1284;80947;-57
2022/01/12 06:29:26;;;;;;;61.20;31.80;;;;;;;-2.90;84.95;102477.56;87580;1283;100691;-57
2022/01/12 06:31:35;;;;;;;59.90;31.10;;;;;;;-2.90;85.21;102480.04;87597;1284;88060;-58
2022/01/12 06:33:45;;;;;;;67.70;32.90;;;;;;;-2.92;85.18;102486.96;87632;1284;94318;-58
2022/01/12 06:35:51;;;;;;;66.10;32.20;;;;;;;-2.92;85.12;102489.27;87573;1284;77237;-59
2022/01/12 06:38:00;;;;;;;67.30;32.50;;;;;;;-2.90;85.12;102484.61;87627;1284;82573;-59
2022/01/12 06:40:14;;;;;;;64.10;31.80;;;;;;;-2.89;85.12;102481.23;87596;1284;99606;-58
2022/01/12 06:42:25;;;;;;;63.90;32.90;;;;;;;-2.88;85.19;102482.95;87674;1283;89422;-58
2022/01/12 06:44:34;;;;;;;63.60;30.40;;;;;;;-2.87;85.14;102484.53;87552;1284;94492;-59
2022/01/12 06:46:40;;;;;;;65.30;30.90;;;;;;;-2.88;85.20;102484.70;87651;1284;79559;-75
2022/01/12 06:48:46;;;;;;;60.10;29.40;;;;;;;-2.90;85.12;102486.20;87574;1284;82619;-75
2022/01/12 06:50:52;;;;;;;63.60;30.40;;;;;;;-2.86;85.06;102487.64;87628;1283;98884;-75
2022/01/12 06:52:57;;;;;;;60.50;30.50;;;;;;;-2.84;85.11;102491.11;87667;1283;88446;-76
2022/01/12 06:55:04;;;;;;;59.30;30.10;;;;;;;-2.77;85.13;102494.58;87607;1283;94220;-75
2022/01/12 06:57:10;;;;;;;63.70;33.00;;;;;;;-2.74;84.97;102499.39;87534;1285;79838;-58
2022/01/12 06:59:16;;;;;;;57.90;30.70;;;;;;;-2.73;84.93;102499.37;87611;1283;81945;-59
2022/01/12 07:01:22;;;;;;;60.20;30.50;;;;;;;-2.72;84.96;102497.38;87573;1284;100372;-59
2022/01/12 07:03:28;;;;;;;59.50;30.70;;;;;;;-2.66;84.68;102502.80;87649;1283;88663;-59
2022/01/12 07:05:36;;;;;;;58.40;29.30;;;;;;;-2.61;84.77;102507.55;87621;1283;95346;-59
2022/01/12 07:07:42;;;;;;;55.80;30.20;;;;;;;-2.57;84.78;102505.14;87578;1284;80489;-71
2022/01/12 07:09:48;;;;;;;51.80;27.30;;;;;;;-2.57;84.53;102506.20;87695;1283;83146;-72
2022/01/12 07:11:56;;;;;;;53.10;28.10;;;;;;;-2.63;84.81;102501.81;87553;1284;100375;-60
2022/01/12 07:14:05;;;;;;;51.10;27.10;;;;;;;-2.65;84.59;102494.30;87687;1283;88591;-61
2022/01/12 07:16:11;;;;;;;53.00;26.80;;;;;;;-2.66;84.33;102498.91;87533;1284;93285;-71
2022/01/12 07:18:19;;;;;;;45.00;25.10;;;;;;;-2.64;84.33;102503.98;87710;1283;79049;-72
2022/01/12 07:20:24;;;;;;;47.80;26.30;;;;;;;-2.65;84.30;102506.66;87704;1283;81305;-76
2022/01/12 07:22:30;;;;;;;49.40;23.60;;;;;;;-2.64;84.40;102508.55;87576;1284;99690;-76
2022/01/12 07:24:39;;;;;;;45.80;24.40;;;;;;;-2.58;84.19;102506.05;87584;1284;88799;-77
2022/01/12 07:26:46;;;;;;;44.20;23.80;;;;;;;-2.52;84.30;102507.42;87590;1284;95636;-58
2022/01/12 07:28:53;;;;;;;43.50;22.60;;;;;;;-2.44;84.31;102510.85;87676;1283;81778;-58
2022/01/12 07:30:59;;;;;;;43.40;22.80;;;;;;;-2.37;84.26;102514.09;87598;1284;80580;-58
2022/01/12 07:33:08;;;;;;;39.00;22.10;;;;;;;-2.31;84.10;102517.45;87549;1284;99315;-58
2022/01/12 07:35:14;;;;;;;44.50;21.80;;;;;;;-2.24;83.95;102513.29;87688;1283;89125;-58
2022/01/12 07:37:22;;;;;;;44.30;23.00;;;;;;;-2.20;83.97;102510.66;87674;1283;95115;-71
2022/01/12 07:39:28;;;;;;;35.50;20.90;;;;;;;-2.17;83.77;102510.00;87457;1286;79999;-72
2022/01/12 07:41:34;;;;;;;36.50;19.70;;;;;;;-2.10;83.45;102502.88;87735;1283;81203;-76
2022/01/12 07:43:39;;;;;;;31.70;18.90;;;;;;;-2.08;83.48;102503.69;87576;1284;99370;-77
2022/01/12 07:45:45;;;;;;;36.00;18.10;;;;;;;-2.06;83.25;102504.11;87572;1284;88971;-78
2022/01/12 07:47:52;;;;;;;37.80;19.30;;;;;;;-2.04;83.60;102504.94;87526;1285;97021;-76
2022/01/12 07:49:59;;;;;;;37.70;20.50;;;;;;;-2.00;83.38;102506.36;87563;1284;77539;-73
2022/01/12 07:52:07;;;;;;;32.90;17.40;;;;;;;-1.97;83.27;102509.45;87681;1283;84222;-74
2022/01/12 07:54:13;;;;;;;34.20;18.20;;;;;;;-1.98;83.30;102506.30;87505;1286;98547;-75
2022/01/12 07:56:19;;;;;;;29.60;15.50;;;;;;;-1.92;83.21;102497.08;87673;1283;89083;-58
2022/01/12 07:58:26;;;;;;;30.60;15.80;;;;;;;-1.84;82.94;102495.15;87567;1284;95225;-60
2022/01/12 08:00:32;;;;;;;30.20;15.10;;;;;;;-1.79;83.08;102497.42;87559;1284;78031;-73
2022/01/12 08:02:38;;;;;;;31.70;15.80;;;;;;;-1.70;82.90;102494.43;87694;1283;81441;-57
2022/01/12 08:04:44;;;;;;;30.10;16.00;;;;;;;-1.58;83.04;102500.00;87570;1283;98510;-63
2022/01/12 08:06:50;;;;;;;27.90;15.70;;;;;;;-1.50;82.96;102499.66;87569;1284;89008;-74
2022/01/12 08:08:56;;;;;;;27.10;15.80;;;;;;;-1.46;82.59;102490.45;87692;1283;93892;-73
2022/01/12 08:11:03;;;;;;;26.80;15.00;;;;;;;-1.42;82.54;102494.39;87674;1283;79369;-66
2022/01/12 08:13:09;;;;;;;24.90;13.80;;;;;;;-1.38;82.63;102493.84;87600;1284;80499;-73
2022/01/12 08:15:15;;;;;;;27.60;15.00;;;;;;;-1.37;82.54;102496.82;87683;1283;100419;-74
2022/01/12 08:17:22;;;;;;;26.80;14.40;;;;;;;-1.33;82.40;102492.77;87588;1284;89399;-74
2022/01/12 08:19:29;;;;;;;24.60;13.90;;;;;;;-1.30;82.45;102497.05;87656;1283;94154;-74
2022/01/12 08:21:36;;;;;;;23.20;13.10;;;;;;;-1.29;82.21;102494.20;87419;1286;78255;-76
2022/01/12 08:23:42;;;;;;;22.90;12.50;;;;;;;-1.33;82.00;102493.46;87584;1284;82064;-74
2022/01/12 08:25:50;;;;;;;22.50;13.10;;;;;;;-1.34;81.79;102499.17;87559;1284;97231;-57
2022/01/12 08:28:00;;;;;;;20.10;12.20;;;;;;;-1.38;81.86;102492.45;87589;1284;87532;-75
2022/01/12 08:30:16;;;;;;;22.60;12.60;;;;;;;-1.41;81.64;102488.68;87710;1283;93660;-75
2022/01/12 08:32:23;;;;;;;21.00;11.90;;;;;;;-1.44;81.96;102485.63;87672;1283;77612;-58
2022/01/12 08:34:29;;;;;;;17.70;11.20;;;;;;;-1.43;81.53;102485.77;87567;1284;82750;-58
2022/01/12 08:36:35;;;;;;;17.70;10.90;;;;;;;-1.38;81.52;102484.86;87688;1283;98556;-74
2022/01/12 08:38:41;;;;;;;18.90;10.10;;;;;;;-1.32;81.42;102483.02;87590;1284;87827;-73
2022/01/12 08:40:48;;;;;;;18.20;10.80;;;;;;;-1.21;81.49;102480.77;87510;1285;95488;-72
2022/01/12 08:42:54;;;;;;;17.20;10.20;;;;;;;-1.06;81.20;102479.27;87566;1284;79522;-73
2022/01/12 08:45:02;;;;;;;15.60;10.10;;;;;;;-0.89;81.22;102486.64;87586;1284;81119;-74
2022/01/12 08:47:09;;;;;;;16.30;9.20;;;;;;;-0.70;81.14;102486.73;87542;1284;99699;-78
2022/01/12 08:49:15;;;;;;;14.90;9.00;;;;;;;-0.57;81.16;102489.68;87597;1284;89539;-77
2022/01/12 08:51:21;;;;;;;15.60;9.00;;;;;;;-0.54;80.91;102495.42;87535;1284;93877;-59
2022/01/12 08:53:27;;;;;;;14.80;9.00;;;;;;;-0.52;80.95;102491.05;87708;1284;78735;-59
2022/01/12 08:55:34;;;;;;;16.90;10.40;;;;;;;-0.42;80.97;102486.90;87576;1284;80286;-58
2022/01/12 08:57:40;;;;;;;17.20;10.30;;;;;;;-0.34;80.74;102483.54;87577;1284;99571;-59
2022/01/12 08:59:47;;;;;;;16.80;10.00;;;;;;;-0.34;80.57;102483.54;87746;1284;88659;-58
2022/01/12 09:01:53;;;;;;;15.70;10.00;;;;;;;-0.25;80.43;102486.64;87691;1284;94462;-57
2022/01/12 09:04:00;;;;;;;15.80;9.50;;;;;;;-0.08;80.38;102489.95;87590;1284;78957;-57
2022/01/12 09:06:06;;;;;;;16.40;9.40;;;;;;;0.04;80.38;102483.03;87591;1284;80046;-77
2022/01/12 09:08:12;;;;;;;14.10;8.40;;;;;;;0.15;79.98;102476.31;87569;1284;99575;-77
2022/01/12 09:10:18;;;;;;;12.90;8.60;;;;;;;0.17;79.54;102474.40;87590;1284;88958;-77
2022/01/12 09:12:25;;;;;;;13.50;8.60;;;;;;;0.21;79.41;102473.50;87696;1285;95778;-78
2022/01/12 09:14:32;;;;;;;16.20;9.40;;;;;;;0.20;79.17;102474.30;87703;1284;78075;-78
2022/01/12 09:16:38;;;;;;;14.00;8.80;;;;;;;0.25;79.20;102469.78;87596;1284;82631;-58
2022/01/12 09:18:45;;;;;;;16.70;9.10;;;;;;;0.31;78.94;102464.38;87698;1285;99459;-58
2022/01/12 09:20:53;;;;;;;15.00;9.50;;;;;;;0.35;78.94;102464.33;87563;1284;89395;-58
2022/01/12 09:22:59;;;;;;;12.20;8.10;;;;;;;0.37;78.96;102468.85;87558;1284;95492;-60
2022/01/12 09:25:10;;;;;;;13.90;8.40;;;;;;;0.40;78.80;102462.85;87576;1284;77833;-58
2022/01/12 09:27:17;;;;;;;14.70;9.20;;;;;;;0.45;78.52;102465.59;87712;1284;81485;-59
2022/01/12 09:29:23;;;;;;;15.00;9.20;;;;;;;0.48;78.34;102462.30;87713;1284;100118;-59
2022/01/12 09:31:32;;;;;;;10.80;7.80;;;;;;;0.48;78.01;102455.89;87718;1284;87356;-77
2022/01/12 09:33:41;;;;;;;13.40;8.20;;;;;;;0.47;77.61;102451.89;87599;1284;93028;-76
2022/01/12 09:35:49;;;;;;;14.30;8.80;;;;;;;0.46;77.64;102451.40;87666;1284;79559;-75
2022/01/12 09:37:58;;;;;;;14.90;8.40;;;;;;;0.45;77.51;102449.30;87692;1284;82065;-77
2022/01/12 09:40:14;;;;;;;14.10;7.90;;;;;;;0.44;77.22;102445.11;87572;1284;98516;-71
2022/01/12 09:42:20;;;;;;;13.00;8.30;;;;;;;0.39;77.15;102446.41;87550;1284;88028;-59
2022/01/12 09:44:33;;;;;;;15.30;9.20;;;;;;;0.34;77.28;102446.30;87698;1284;95637;-71
2022/01/12 09:46:39;;;;;;;14.70;8.90;;;;;;;0.32;77.15;102450.84;87563;1284;77376;-71
2022/01/12 09:48:46;;;;;;;18.80;9.80;;;;;;;0.29;77.05;102448.66;87710;1284;82304;-70
2022/01/12 09:50:56;;;;;;;14.80;9.70;;;;;;;0.30;77.12;102459.63;87679;1284;99525;-58
2022/01/12 09:53:02;;;;;;;17.10;9.70;;;;;;;0.26;76.96;102459.84;87698;1283;88254;-69
2022/01/12 09:55:11;;;;;;;17.90;11.30;;;;;;;0.22;76.96;102458.96;87691;1284;94393;-70
2022/01/12 09:57:17;;;;;;;20.90;11.70;;;;;;;0.18;76.93;102456.48;87581;1284;77613;-70
2022/01/12 09:59:24;;;;;;;21.50;11.70;;;;;;;0.18;77.15;102458.08;87660;1284;80589;-59
2022/01/12 10:01:33;;;;;;;24.50;13.10;;;;;;;0.14;76.95;102457.77;87555;1284;99432;-58
2022/01/12 10:03:39;;;;;;;25.80;14.10;;;;;;;0.15;76.57;102456.47;87668;1284;87035;-71
2022/01/12 10:05:47;;;;;;;24.40;13.80;;;;;;;0.13;76.13;102452.10;87565;1284;95193;-69
2022/01/12 10:07:53;;;;;;;29.10;15.60;;;;;;;0.12;76.32;102447.19;87566;1284;77573;-57
2022/01/12 10:10:05;;;;;;;29.30;15.00;;;;;;;0.14;76.35;102448.33;87659;1284;82623;-57
2022/01/12 10:12:17;;;;;;;26.10;15.00;;;;;;;0.13;76.30;102448.23;87558;1284;99297;-56
2022/01/12 10:14:24;;;;;;;28.20;15.40;;;;;;;0.10;76.29;102444.29;87583;1284;87803;-57
2022/01/12 10:16:31;;;;;;;29.70;14.90;;;;;;;0.08;75.88;102441.89;87600;1284;94932;-58
2022/01/12 10:18:47;;;;;;;26.20;15.00;;;;;;;0.05;76.25;102437.61;87547;1284;77308;-57
2022/01/12 10:20:54;;;;;;;29.90;16.10;;;;;;;0.09;76.17;102430.50;87705;1284;81196;-57
2022/01/12 10:23:06;;;;;;;29.30;16.20;;;;;;;0.09;75.89;102426.98;87617;1284;100295;-57
2022/01/12 10:25:21;;;;;;;29.90;15.80;;;;;;;0.12;75.88;102425.61;87691;1284;86730;-69
2022/01/12 10:27:29;;;;;;;28.40;15.60;;;;;;;0.11;75.96;102424.56;87536;1284;94410;-58
2022/01/12 10:29:35;;;;;;;28.30;16.00;;;;;;;0.13;75.74;102428.02;87684;1285;78912;-58
2022/01/12 10:31:51;;;;;;;31.20;16.80;;;;;;;0.15;75.87;102429.34;87599;1284;82153;-75
2022/01/12 10:34:03;;;;;;;32.40;16.80;;;;;;;0.17;75.90;102431.20;87679;1284;98334;-74
2022/01/12 10:36:11;;;;;;;28.70;16.60;;;;;;;0.21;75.49;102433.85;87565;1284;88374;-77
2022/01/12 10:38:22;;;;;;;30.70;16.40;;;;;;;0.18;75.40;102429.54;87569;1284;93856;-77
2022/01/12 10:40:27;;;;;;;30.70;16.20;;;;;;;0.20;75.32;102424.48;87540;1284;77755;-70
2022/01/12 10:42:33;;;;;;;31.20;16.80;;;;;;;0.22;75.37;102421.77;87727;1283;82425;-59
2022/01/12 10:44:42;;;;;;;29.30;17.10;;;;;;;0.24;75.50;102421.30;87538;1284;99250;-59
2022/01/12 10:46:48;;;;;;;37.60;18.50;;;;;;;0.27;75.58;102425.91;87570;1284;88219;-59
2022/01/12 10:48:59;;;;;;;34.10;18.10;;;;;;;0.29;75.52;102430.27;87698;1283;95930;-59
2022/01/12 10:51:05;;;;;;;29.80;16.70;;;;;;;0.33;75.36;102434.67;87576;1284;77019;-63
2022/01/12 10:53:10;;;;;;;34.20;17.80;;;;;;;0.36;75.30;102433.48;87607;1284;81647;-74
2022/01/12 10:55:19;;;;;;;36.20;19.30;;;;;;;0.41;75.33;102434.44;87758;1283;99301;-73
2022/01/12 10:57:28;;;;;;;33.80;19.10;;;;;;;0.46;75.18;102436.87;87552;1284;89426;-58
2022/01/12 10:59:37;;;;;;;33.60;19.00;;;;;;;0.48;75.14;102427.55;87741;1283;94535;-58
2022/01/12 11:01:47;;;;;;;36.70;19.80;;;;;;;0.55;75.13;102431.80;87731;1283;77499;-73
2022/01/12 11:03:53;;;;;;;33.70;19.40;;;;;;;0.60;75.15;102431.20;87573;1284;82199;-74
2022/01/12 11:06:03;;;;;;;36.50;22.20;;;;;;;0.69;75.11;102430.41;87749;1283;98755;-67
2022/01/12 11:08:13;;;;;;;33.10;19.10;;;;;;;0.73;75.14;102435.00;87578;1284;89167;-70
2022/01/12 11:10:20;;;;;;;34.00;19.80;;;;;;;0.76;75.11;102438.39;87732;1283;93729;-71
2022/01/12 11:12:26;;;;;;;35.30;19.90;;;;;;;0.79;74.85;102439.98;87563;1284;77214;-58